Time;durP1;ratioP1;P1;durP2;ratioP2;P2;SDS_P1;SDS_P2;PMS_P1;PMS_P2;Temp;Humidity;BMP_temperature;BMP_pressure;BME280_temperature;BME280_humidity;BME280_pressure;Samples;Min_cycle;Max_cycle;Signal;HPM_P1;HPM_P2
2022/03/18 00:00:18;;;;;;;21.05;12.85;;;;;;;0.64;80.48;94923.19;5113126;28;20078;-40
2022/03/18 00:02:44;;;;;;;24.10;14.50;;;;;;;0.58;80.89;94925.00;5113080;28;20058;-41
2022/03/18 00:05:11;;;;;;;23.90;15.48;;;;;;;0.56;80.94;94928.16;5112993;28;20040;-40
2022/03/18 00:07:37;;;;;;;16.17;11.00;;;;;;;0.51;80.68;94936.16;5112937;28;20028;-41
2022/03/18 00:10:03;;;;;;;18.25;10.98;;;;;;;0.54;80.61;94943.41;5112794;28;20035;-40
2022/03/18 00:12:28;;;;;;;20.40;12.25;;;;;;;0.52;80.54;94937.66;5112888;28;20028;-40
2022/03/18 00:14:54;;;;;;;18.48;11.55;;;;;;;0.38;80.09;94936.25;5112815;27;20016;-40
2022/03/18 00:17:19;;;;;;;17.33;11.23;;;;;;;0.37;79.72;94936.72;5112790;28;20555;-40
2022/03/18 00:19:45;;;;;;;18.15;10.63;;;;;;;0.26;79.93;94936.34;5112701;28;20016;-40
2022/03/18 00:22:12;;;;;;;15.35;10.93;;;;;;;0.19;81.03;94933.91;5112575;28;20067;-40
2022/03/18 00:24:38;;;;;;;14.65;10.65;;;;;;;0.16;81.05;94937.50;5111126;28;20030;-40
2022/03/18 00:27:04;;;;;;;18.17;11.18;;;;;;;0.03;80.81;94934.09;5112215;28;20023;-40
2022/03/18 00:29:30;;;;;;;19.50;11.07;;;;;;;0.03;81.71;94934.09;5112090;28;20115;-40
2022/03/18 00:31:56;;;;;;;24.67;14.05;;;;;;;0.10;81.63;94934.63;5112182;28;20485;-40
2022/03/18 00:34:22;;;;;;;19.25;12.05;;;;;;;0.13;81.36;94936.44;5112348;28;20061;-40
2022/03/18 00:36:47;;;;;;;13.15;8.07;;;;;;;0.10;81.00;94931.13;5112373;28;20450;-40
2022/03/18 00:39:13;;;;;;;11.73;8.77;;;;;;;0.02;80.49;94917.09;5111978;28;20015;-41
2022/03/18 00:41:38;;;;;;;12.40;8.65;;;;;;;-0.19;81.46;94929.47;5111658;28;20042;-40
2022/03/18 00:44:04;;;;;;;15.50;9.25;;;;;;;-0.09;81.35;94933.00;5111929;28;20110;-40
2022/03/18 00:46:30;;;;;;;13.68;9.27;;;;;;;-0.10;82.26;94936.91;5093108;28;20031;-40
2022/03/18 00:54:23;;;;;;;15.05;9.70;;;;;;;-0.20;81.77;94941.53;5091412;28;20027;-40
2022/03/18 00:56:49;;;;;;;12.65;9.02;;;;;;;-0.21;81.35;94923.72;5110361;28;20047;-40
2022/03/18 00:59:14;;;;;;;11.38;8.50;;;;;;;0.09;80.36;94948.66;5111598;28;20020;-40
2022/03/18 01:01:40;;;;;;;11.05;8.02;;;;;;;0.00;79.86;94952.81;5111505;28;20027;-40
2022/03/18 01:04:05;;;;;;;15.77;8.93;;;;;;;-0.09;80.01;94958.19;5111592;28;20035;-40
2022/03/18 01:06:32;;;;;;;12.25;8.98;;;;;;;-0.10;80.62;94959.41;5111737;28;20046;-40
2022/03/18 01:08:57;;;;;;;9.20;6.93;;;;;;;-0.03;79.76;94955.66;5111374;28;20024;-40
2022/03/18 01:11:23;;;;;;;9.73;7.43;;;;;;;-0.03;79.39;94964.56;5111587;28;20111;-40
2022/03/18 01:13:48;;;;;;;11.30;8.10;;;;;;;-0.02;79.73;94959.88;5111669;28;20016;-40
2022/03/18 01:16:14;;;;;;;10.32;8.25;;;;;;;-0.13;80.45;94954.84;5111547;28;20404;-40
2022/03/18 01:18:39;;;;;;;9.73;7.15;;;;;;;-0.14;80.53;94961.47;5111285;28;20031;-40
2022/03/18 01:21:05;;;;;;;17.63;12.27;;;;;;;-0.30;80.60;94966.31;5111533;28;20175;-40
2022/03/18 01:23:30;;;;;;;18.98;13.05;;;;;;;-0.29;80.76;94965.13;5111443;28;20042;-40
2022/03/18 01:25:56;;;;;;;14.57;10.93;;;;;;;-0.14;81.61;94971.56;5111148;28;20063;-40
2022/03/18 01:28:22;;;;;;;17.55;10.73;;;;;;;-0.14;81.99;94979.72;5111237;28;20038;-40
2022/03/18 01:30:48;;;;;;;13.60;10.25;;;;;;;-0.05;81.21;94975.13;5111037;27;20034;-40
2022/03/18 01:33:13;;;;;;;15.73;11.73;;;;;;;0.00;80.99;94968.34;5111108;28;20019;-40
2022/03/18 01:35:38;;;;;;;14.32;10.27;;;;;;;0.10;80.18;94982.72;5110970;28;20023;-40
2022/03/18 01:38:04;;;;;;;12.77;9.88;;;;;;;0.12;79.85;94980.31;5110935;28;20015;-40
2022/03/18 01:40:31;;;;;;;12.45;9.35;;;;;;;0.03;80.06;94978.31;5110836;28;20019;-40
2022/03/18 01:42:56;;;;;;;18.55;9.95;;;;;;;-0.02;79.15;94971.50;5090619;28;20031;-40
2022/03/18 01:45:22;;;;;;;13.07;8.38;;;;;;;0.00;78.27;94968.34;5090770;28;20020;-40
2022/03/18 01:47:47;;;;;;;12.27;8.63;;;;;;;0.03;78.21;94964.75;5090698;28;20046;-40
2022/03/18 01:50:14;;;;;;;21.15;10.57;;;;;;;-0.01;78.79;94967.59;5090712;28;20547;-40
2022/03/18 01:52:40;;;;;;;17.27;10.55;;;;;;;-0.13;79.39;94973.84;5090646;28;20116;-40
2022/03/18 01:55:07;;;;;;;17.00;10.85;;;;;;;-0.08;80.05;94957.00;5093769;28;20077;-41
2022/03/18 01:57:32;;;;;;;17.10;11.25;;;;;;;0.04;79.21;94977.13;5110427;28;20484;-40
2022/03/18 01:59:58;;;;;;;19.65;11.13;;;;;;;0.11;79.44;94981.53;5111008;28;20043;-40
2022/03/18 02:02:24;;;;;;;19.15;10.18;;;;;;;0.11;79.02;94976.13;5111015;28;20506;-40
2022/03/18 02:04:50;;;;;;;16.05;9.55;;;;;;;0.05;78.89;94981.34;5110889;28;20030;-41
2022/03/18 02:07:16;;;;;;;16.90;9.85;;;;;;;0.06;78.83;94982.09;5110680;28;20028;-40
2022/03/18 02:09:41;;;;;;;17.65;12.90;;;;;;;-0.02;78.53;94979.66;5110753;28;20023;-41
2022/03/18 02:12:08;;;;;;;20.83;13.05;;;;;;;-0.05;78.94;94979.78;5110580;28;20485;-40
2022/03/18 02:14:34;;;;;;;15.05;10.05;;;;;;;0.02;79.32;94982.25;5110583;28;20492;-40
2022/03/18 02:17:01;;;;;;;14.65;9.82;;;;;;;0.01;78.82;94972.56;5110479;28;20115;-40
2022/03/18 02:19:26;;;;;;;12.70;9.50;;;;;;;-0.01;78.92;94978.47;5110764;28;20073;-40
2022/03/18 02:21:54;;;;;;;9.60;7.03;;;;;;;0.07;77.01;94980.88;5110383;28;20019;-40
2022/03/18 02:24:20;;;;;;;11.70;8.00;;;;;;;0.03;77.14;94989.19;5110380;28;20012;-40
2022/03/18 02:26:51;;;;;;;13.13;9.18;;;;;;;0.11;77.33;94985.00;5110762;28;20020;-40
2022/03/18 02:29:21;;;;;;;9.68;7.72;;;;;;;0.11;76.35;94986.97;5110335;28;20107;-40
2022/03/18 02:31:47;;;;;;;10.18;7.85;;;;;;;0.04;75.58;94982.56;5110763;28;20026;-39
2022/03/18 02:34:14;;;;;;;18.08;9.82;;;;;;;-0.01;76.50;94999.41;5110340;28;20020;-40
2022/03/18 02:36:39;;;;;;;15.95;8.57;;;;;;;-0.01;77.17;95002.88;5110337;28;20024;-40
2022/03/18 02:39:05;;;;;;;12.20;8.13;;;;;;;-0.07;77.02;95006.63;5090979;28;20027;-40
2022/03/18 02:41:32;;;;;;;16.15;10.10;;;;;;;-0.09;77.15;95011.72;5104690;28;20047;-40
2022/03/18 02:43:58;;;;;;;25.42;11.27;;;;;;;-0.25;75.64;95003.75;5110293;28;20580;-40
2022/03/18 02:46:23;;;;;;;10.23;8.15;;;;;;;-0.48;76.68;95007.66;5110474;28;20032;-40
2022/03/18 02:48:49;;;;;;;11.98;7.97;;;;;;;-0.63;77.73;95003.91;5110412;28;20058;-40
2022/03/18 02:51:14;;;;;;;11.23;8.27;;;;;;;-0.65;77.89;95009.00;5110535;28;20023;-40
2022/03/18 02:53:40;;;;;;;22.45;11.23;;;;;;;-0.75;78.16;95004.69;5110105;28;20105;-40
2022/03/18 02:56:07;;;;;;;30.00;16.33;;;;;;;-0.72;77.52;94995.69;5097299;28;20035;-40
2022/03/18 02:58:32;;;;;;;10.90;8.63;;;;;;;-0.57;77.06;95010.28;5088420;28;20048;-40
2022/03/18 03:00:58;;;;;;;9.63;6.55;;;;;;;-0.64;76.27;95018.66;5090071;28;20031;-39
2022/03/18 03:03:23;;;;;;;12.55;7.57;;;;;;;-0.81;76.26;94998.31;5089732;28;20108;-40
2022/03/18 03:08:33;;;;;;;10.30;6.95;;;;;;;-0.76;76.12;95033.75;5092592;28;20121;-40
2022/03/18 03:10:58;;;;;;;12.73;8.73;;;;;;;-0.71;76.42;95034.44;5103949;28;20036;-40
2022/03/18 03:13:24;;;;;;;11.15;7.85;;;;;;;-0.95;75.89;95006.91;5113990;28;20046;-40
2022/03/18 03:15:50;;;;;;;13.05;8.45;;;;;;;-0.86;76.10;95036.81;5113988;28;20050;-40
2022/03/18 03:18:16;;;;;;;10.88;8.30;;;;;;;-1.14;76.54;95016.81;5113571;28;20050;-40
2022/03/18 03:20:41;;;;;;;12.32;7.35;;;;;;;-1.02;76.53;95042.41;5113542;27;20115;-40
2022/03/18 03:23:07;;;;;;;9.25;7.65;;;;;;;-1.10;76.64;95043.78;5113498;28;20031;-40
2022/03/18 03:25:33;;;;;;;13.63;7.10;;;;;;;-1.09;76.74;95056.16;5113735;28;20441;-40
2022/03/18 03:27:58;;;;;;;10.82;8.13;;;;;;;-1.16;77.52;95053.66;5113633;28;20020;-39
2022/03/18 03:30:24;;;;;;;11.93;9.00;;;;;;;-1.20;78.36;95061.16;5113321;28;20023;-39
2022/03/18 03:32:49;;;;;;;12.02;6.95;;;;;;;-1.19;78.38;95055.28;5113626;28;20038;-40
2022/03/18 03:35:15;;;;;;;11.05;7.72;;;;;;;-1.13;77.82;95059.00;5111903;28;20038;-40
2022/03/18 03:37:41;;;;;;;11.50;8.45;;;;;;;-1.02;78.03;95045.84;5112320;28;20028;-40
2022/03/18 03:40:08;;;;;;;12.77;9.20;;;;;;;-0.91;77.96;95054.41;5109527;28;20022;-40
2022/03/18 03:42:34;;;;;;;8.88;6.93;;;;;;;-0.85;76.91;95051.91;5092951;28;20160;-40
2022/03/18 03:44:59;;;;;;;12.77;6.35;;;;;;;-0.85;75.82;95058.09;5092735;28;20085;-40
2022/03/18 03:47:25;;;;;;;10.90;6.05;;;;;;;-0.99;75.24;95058.53;5092601;28;20034;-40
2022/03/18 03:49:50;;;;;;;9.27;5.65;;;;;;;-0.98;75.46;95064.72;5092548;28;20114;-40
2022/03/18 03:52:16;;;;;;;11.65;6.97;;;;;;;-1.06;75.37;95068.84;5092883;28;20034;-40
2022/03/18 03:54:42;;;;;;;12.68;7.43;;;;;;;-1.24;75.87;95055.06;5093669;28;20020;-40
2022/03/18 03:57:08;;;;;;;12.85;8.00;;;;;;;-1.27;76.99;95061.34;5112982;28;20059;-40
2022/03/18 03:59:33;;;;;;;45.33;20.48;;;;;;;-1.29;76.54;95071.88;5112758;28;20026;-40
2022/03/18 04:01:59;;;;;;;21.85;14.15;;;;;;;-1.43;76.95;95064.19;5112808;28;20043;-40
2022/03/18 04:04:25;;;;;;;13.25;8.70;;;;;;;-1.44;77.29;95073.47;5112716;28;20035;-40
2022/03/18 04:06:51;;;;;;;10.00;7.70;;;;;;;-1.39;76.61;95073.72;5112612;28;20108;-40
2022/03/18 04:09:16;;;;;;;10.85;6.38;;;;;;;-1.37;76.08;95071.34;5112645;28;20032;-40
2022/03/18 04:11:42;;;;;;;9.65;7.40;;;;;;;-1.42;76.91;95074.56;5112699;28;20019;-40
2022/03/18 04:14:07;;;;;;;10.68;6.75;;;;;;;-1.46;76.85;95065.78;5112903;28;20023;-40
2022/03/18 04:16:33;;;;;;;9.88;7.13;;;;;;;-1.31;76.98;95077.72;5112723;28;20473;-40
2022/03/18 04:18:58;;;;;;;9.00;7.00;;;;;;;-1.30;76.24;95081.19;5112406;28;20030;-40
2022/03/18 04:21:24;;;;;;;8.35;6.20;;;;;;;-1.42;76.65;95079.22;5112374;28;20034;-40
2022/03/18 04:23:49;;;;;;;10.98;6.93;;;;;;;-1.51;77.03;95082.56;5112601;27;20034;-40
2022/03/18 04:26:15;;;;;;;10.05;7.05;;;;;;;-1.46;76.76;95079.34;5112356;28;20028;-40
2022/03/18 04:28:40;;;;;;;13.38;7.38;;;;;;;-1.59;77.10;95078.56;5112192;28;20020;-40
2022/03/18 04:31:06;;;;;;;11.48;7.97;;;;;;;-1.60;78.09;95079.72;5096972;28;20039;-40
2022/03/18 04:33:31;;;;;;;11.23;7.47;;;;;;;-1.54;77.32;95094.28;5091848;28;20019;-40
2022/03/18 04:35:56;;;;;;;11.55;7.72;;;;;;;-1.48;76.27;95097.22;5091721;28;20401;-40
2022/03/18 04:38:23;;;;;;;10.27;7.35;;;;;;;-1.48;75.79;95086.38;5091987;28;20016;-40
2022/03/18 04:40:49;;;;;;;14.48;8.23;;;;;;;-1.31;74.83;95085.84;5100880;28;20471;-40
2022/03/18 04:43:15;;;;;;;13.27;6.13;;;;;;;-1.34;74.77;95094.09;5112227;28;20019;-40
2022/03/18 04:45:40;;;;;;;8.27;5.85;;;;;;;-1.43;75.01;95100.16;5111990;28;20027;-40
2022/03/18 04:48:06;;;;;;;7.78;5.57;;;;;;;-1.58;75.01;95094.38;5111752;28;20031;-41
2022/03/18 04:50:31;;;;;;;9.45;7.03;;;;;;;-1.60;75.36;95101.41;5111823;28;20077;-40
2022/03/18 04:52:57;;;;;;;11.80;7.90;;;;;;;-1.58;75.78;95107.91;5112073;28;20024;-40
2022/03/18 04:55:23;;;;;;;10.63;7.60;;;;;;;-1.62;76.04;95112.66;5104851;27;20149;-40
2022/03/18 04:57:48;;;;;;;8.77;6.28;;;;;;;-1.63;74.79;95113.88;5091187;28;20071;-40
2022/03/18 05:00:14;;;;;;;7.95;5.50;;;;;;;-1.57;73.77;95114.84;5091457;28;20022;-40
2022/03/18 05:02:41;;;;;;;11.77;6.53;;;;;;;-1.54;73.79;95116.69;5091522;28;20145;-40
2022/03/18 05:05:11;;;;;;;10.40;6.85;;;;;;;-1.46;74.28;95119.19;5091431;28;20031;-40
2022/03/18 05:07:39;;;;;;;10.35;6.90;;;;;;;-1.36;74.03;95118.13;5091082;28;20038;-40
2022/03/18 05:10:06;;;;;;;10.90;8.20;;;;;;;-1.41;74.74;95129.50;5093863;28;20032;-40
2022/03/18 05:12:32;;;;;;;13.07;7.45;;;;;;;-1.25;73.91;95137.53;5110130;28;20463;-40
2022/03/18 05:14:57;;;;;;;9.07;5.90;;;;;;;-1.09;73.34;95132.03;5111364;28;20024;-40
2022/03/18 05:17:23;;;;;;;15.40;8.20;;;;;;;-1.08;73.13;95130.84;5111514;28;20031;-40
2022/03/18 05:19:49;;;;;;;11.18;6.72;;;;;;;-1.29;73.02;95137.66;5111590;28;20023;-40
2022/03/18 05:22:14;;;;;;;8.15;6.70;;;;;;;-1.16;72.04;95141.16;5111155;28;20024;-40
2022/03/18 05:24:40;;;;;;;8.73;6.50;;;;;;;-1.07;71.67;95143.22;5111174;28;20023;-40
2022/03/18 05:27:05;;;;;;;6.88;5.28;;;;;;;-1.27;71.07;95150.75;5111037;28;20046;-40
2022/03/18 05:29:31;;;;;;;8.18;6.05;;;;;;;-1.19;70.93;95157.53;5110183;28;20054;-40
2022/03/18 05:31:57;;;;;;;12.85;7.40;;;;;;;-1.03;70.84;95150.06;5110533;28;20024;-40
2022/03/18 05:34:23;;;;;;;10.93;6.72;;;;;;;-1.12;70.73;95147.22;5111350;28;20092;-40
2022/03/18 05:36:49;;;;;;;10.15;7.20;;;;;;;-1.09;70.86;95143.66;5111017;28;20428;-40
2022/03/18 05:39:15;;;;;;;10.80;6.88;;;;;;;-1.16;71.25;95151.22;5111243;28;20015;-40
2022/03/18 05:41:43;;;;;;;12.73;8.20;;;;;;;-1.03;71.81;95143.88;5110865;28;20579;-40
2022/03/18 05:44:08;;;;;;;7.80;6.28;;;;;;;-0.91;69.97;95156.69;5110853;28;20030;-40
2022/03/18 05:46:34;;;;;;;10.80;6.07;;;;;;;-0.97;70.71;95153.72;5110815;28;20024;-40
2022/03/18 05:48:59;;;;;;;10.30;7.53;;;;;;;-0.83;71.35;95157.97;5111067;28;20047;-40
2022/03/18 05:51:25;;;;;;;9.88;8.00;;;;;;;-0.70;72.18;95158.75;5110797;28;20500;-40
2022/03/18 05:53:51;;;;;;;18.33;11.80;;;;;;;-0.62;71.68;95167.41;5110971;28;20027;-40
2022/03/18 05:59:01;;;;;;;23.85;15.23;;;;;;;-0.59;71.42;95163.81;5090619;28;20102;-40
2022/03/18 06:01:28;;;;;;;12.98;8.60;;;;;;;-0.67;71.38;95144.28;5089082;28;20059;-40
2022/03/18 06:03:53;;;;;;;13.38;8.48;;;;;;;-0.42;70.64;95171.41;5090289;28;20024;-40
2022/03/18 06:06:19;;;;;;;27.05;13.35;;;;;;;-0.41;70.26;95170.19;5090573;28;20024;-40
2022/03/18 06:14:12;;;;;;;45.35;23.30;;;;;;;-0.12;69.92;95176.25;5110906;28;20042;-40
2022/03/18 06:16:38;;;;;;;56.30;27.73;;;;;;;-0.05;68.74;95176.00;5110643;28;20019;-40
2022/03/18 06:19:04;;;;;;;37.08;18.85;;;;;;;-0.05;69.29;95156.25;5110561;28;20024;-40
2022/03/18 06:21:29;;;;;;;23.45;12.27;;;;;;;0.22;68.50;95191.78;5110886;28;20055;-40
2022/03/18 06:23:55;;;;;;;24.48;14.10;;;;;;;0.31;68.66;95200.00;5110402;28;20032;-40
2022/03/18 06:26:20;;;;;;;21.65;11.57;;;;;;;0.45;67.39;95201.50;5110600;28;20041;-40
2022/03/18 06:28:45;;;;;;;11.50;8.02;;;;;;;0.57;66.54;95204.16;5110640;28;20035;-40
2022/03/18 06:31:11;;;;;;;16.40;11.80;;;;;;;0.54;65.66;95179.84;5110464;28;20032;-40
2022/03/18 06:33:43;;;;;;;11.63;7.70;;;;;;;0.71;64.91;95205.63;5110700;28;20031;-40
2022/03/18 06:36:09;;;;;;;8.68;6.32;;;;;;;0.83;65.31;95202.06;5110458;28;20054;-40
2022/03/18 06:38:34;;;;;;;11.20;7.30;;;;;;;0.95;64.34;95198.53;5110655;28;20023;-40
2022/03/18 06:41:00;;;;;;;10.98;7.07;;;;;;;1.50;60.32;95208.47;5110336;28;20100;-40
2022/03/18 06:43:25;;;;;;;9.85;6.97;;;;;;;2.10;58.70;95206.09;5114285;28;20038;-40
2022/03/18 06:45:51;;;;;;;9.82;6.90;;;;;;;2.47;57.09;95204.16;5114555;28;20500;-40
2022/03/18 06:48:16;;;;;;;9.52;6.55;;;;;;;1.80;57.87;95212.38;5114390;28;20473;-40
2022/03/18 06:50:41;;;;;;;11.38;7.68;;;;;;;1.92;59.94;95216.19;5114470;28;20404;-40
2022/03/18 06:53:07;;;;;;;9.40;7.00;;;;;;;2.14;57.85;95214.88;5114396;28;20028;-40
2022/03/18 06:55:32;;;;;;;13.75;7.97;;;;;;;2.30;56.85;95213.84;5105803;28;20028;-40
2022/03/18 06:57:58;;;;;;;10.65;7.47;;;;;;;3.72;55.24;95217.31;5093585;28;20536;-41
2022/03/18 07:00:24;;;;;;;11.02;7.18;;;;;;;5.00;51.68;95207.78;5093528;28;20101;-40
2022/03/18 07:02:49;;;;;;;10.40;7.22;;;;;;;4.96;49.88;95209.97;5093652;28;20103;-41
2022/03/18 07:05:15;;;;;;;7.35;6.40;;;;;;;5.06;51.47;95216.13;5093735;28;20447;-40
2022/03/18 07:07:40;;;;;;;11.48;6.95;;;;;;;4.39;49.74;95216.78;5093757;28;20016;-40
2022/03/18 07:10:06;;;;;;;11.68;8.13;;;;;;;3.86;51.73;95222.09;5096564;28;20488;-40
2022/03/18 07:12:31;;;;;;;5.90;4.65;;;;;;;3.72;49.46;95226.25;5114046;28;20132;-40
2022/03/18 07:14:57;;;;;;;7.63;5.28;;;;;;;2.87;52.95;95223.88;5113705;28;20024;-39
2022/03/18 07:20:08;;;;;;;11.20;8.00;;;;;;;1.70;54.76;95243.50;5114047;28;20042;-40
2022/03/18 07:22:33;;;;;;;6.13;4.78;;;;;;;1.95;54.05;95235.09;5113514;28;20035;-40
2022/03/18 07:24:59;;;;;;;7.60;5.93;;;;;;;2.06;54.12;95240.88;5113816;28;20481;-40
2022/03/18 07:27:24;;;;;;;6.20;5.28;;;;;;;1.87;54.15;95239.31;5113449;27;20481;-40
2022/03/18 07:29:49;;;;;;;5.40;4.60;;;;;;;1.79;55.50;95242.78;5113622;28;20030;-40
2022/03/18 07:32:15;;;;;;;8.60;5.47;;;;;;;1.83;56.45;95235.22;5113713;28;20016;-40
2022/03/18 07:34:41;;;;;;;7.25;4.85;;;;;;;1.87;53.03;95235.84;5113627;28;20016;-40
2022/03/18 07:37:07;;;;;;;9.23;5.72;;;;;;;1.77;54.29;95228.84;5113635;28;20111;-41
2022/03/18 07:39:33;;;;;;;7.45;4.57;;;;;;;1.53;52.25;95236.78;5113255;28;20038;-40
2022/03/18 07:41:58;;;;;;;6.68;4.40;;;;;;;1.43;52.38;95237.91;5094166;28;20445;-40
2022/03/18 07:44:23;;;;;;;10.18;7.15;;;;;;;1.61;54.06;95234.53;5092993;28;20485;-40
2022/03/18 07:46:49;;;;;;;7.35;5.43;;;;;;;1.40;53.93;95239.59;5092732;28;20455;-40
2022/03/18 07:49:14;;;;;;;7.72;5.88;;;;;;;1.18;54.09;95238.84;5092559;28;20020;-40
2022/03/18 07:51:40;;;;;;;9.32;5.53;;;;;;;1.44;54.12;95240.22;5092956;28;20019;-40
2022/03/18 07:54:05;;;;;;;9.93;6.35;;;;;;;1.67;54.59;95238.94;5091795;28;20047;-40
2022/03/18 07:56:31;;;;;;;8.40;6.13;;;;;;;2.11;54.59;95239.53;5109212;28;20047;-40
2022/03/18 07:58:56;;;;;;;15.98;9.35;;;;;;;2.56;54.74;95234.16;5113197;28;20031;-40
2022/03/18 08:01:22;;;;;;;19.52;11.98;;;;;;;2.82;54.11;95240.06;5113168;28;20050;-41
2022/03/18 08:03:47;;;;;;;14.38;8.35;;;;;;;3.10;53.85;95244.28;5112720;28;20424;-41
2022/03/18 08:06:13;;;;;;;20.73;12.75;;;;;;;3.27;52.83;95244.75;5112700;28;20038;-40
2022/03/18 08:08:38;;;;;;;30.73;18.80;;;;;;;4.35;51.08;95243.56;5112581;28;20027;-41
2022/03/18 08:11:04;;;;;;;7.15;6.22;;;;;;;4.89;48.16;95232.25;5112560;28;20030;-40
2022/03/18 08:13:29;;;;;;;7.82;5.93;;;;;;;5.50;45.73;95227.84;5111470;28;20023;-40
2022/03/18 08:15:55;;;;;;;25.45;16.50;;;;;;;5.78;46.24;95237.28;5098801;28;20107;-40
2022/03/18 08:18:21;;;;;;;10.13;7.63;;;;;;;5.86;45.60;95240.44;5092132;28;20058;-40
2022/03/18 08:20:52;;;;;;;8.93;6.82;;;;;;;5.67;43.49;95236.34;5092316;28;20032;-40
2022/03/18 08:23:18;;;;;;;8.38;5.97;;;;;;;5.02;46.00;95227.25;5091973;28;20051;-40
2022/03/18 08:25:44;;;;;;;24.13;17.90;;;;;;;4.77;46.07;95227.00;5092210;28;20111;-40
2022/03/18 08:28:10;;;;;;;8.50;6.30;;;;;;;4.41;44.72;95225.28;5091937;28;20024;-40
2022/03/18 08:30:36;;;;;;;7.10;5.88;;;;;;;4.42;45.50;95235.75;5091792;28;20020;-40
2022/03/18 08:33:02;;;;;;;7.85;6.60;;;;;;;4.49;48.39;95232.69;5092130;28;20089;-40
2022/03/18 08:35:28;;;;;;;9.40;6.82;;;;;;;5.96;47.79;95226.13;5092015;28;20024;-40
2022/03/18 08:37:56;;;;;;;8.60;5.90;;;;;;;5.77;44.90;95219.34;5091886;28;20047;-40
2022/03/18 08:40:30;;;;;;;11.15;6.40;;;;;;;6.13;44.71;95231.13;5097168;28;20026;-40
2022/03/18 08:42:56;;;;;;;7.60;6.05;;;;;;;6.04;44.46;95232.00;5112293;28;20102;-40
2022/03/18 08:45:23;;;;;;;16.73;12.10;;;;;;;6.26;44.29;95223.31;5112077;28;20054;-40
2022/03/18 08:47:48;;;;;;;11.75;8.25;;;;;;;6.56;43.15;95224.72;5110973;28;20072;-40
2022/03/18 08:50:15;;;;;;;6.63;5.18;;;;;;;6.40;43.29;95231.50;5112084;28;20032;-40
2022/03/18 08:52:41;;;;;;;7.25;5.35;;;;;;;6.52;41.60;95226.94;5111816;28;20569;-41
2022/03/18 08:55:07;;;;;;;8.48;6.15;;;;;;;6.29;41.63;95214.13;5107270;28;20027;-40
2022/03/18 08:57:36;;;;;;;13.48;8.32;;;;;;;6.03;42.83;95209.28;5091339;28;20048;-40
2022/03/18 09:00:05;;;;;;;16.58;10.20;;;;;;;5.65;43.89;95228.59;5091640;28;20077;-40
2022/03/18 09:02:30;;;;;;;16.05;9.70;;;;;;;4.47;42.75;95226.16;5091324;28;20066;-40
2022/03/18 09:04:56;;;;;;;9.82;7.00;;;;;;;3.91;40.88;95235.13;5090491;28;20113;-40
2022/03/18 09:07:21;;;;;;;13.07;7.60;;;;;;;3.41;42.40;95231.22;5091520;28;20085;-40
2022/03/18 09:09:47;;;;;;;8.35;5.72;;;;;;;3.62;43.95;95234.94;5091272;28;20459;-40
2022/03/18 09:12:12;;;;;;;23.38;13.82;;;;;;;3.58;44.32;95235.09;5111297;28;20038;-40
2022/03/18 09:14:38;;;;;;;11.15;7.90;;;;;;;3.53;43.76;95232.97;5111698;28;20027;-40
2022/03/18 09:17:04;;;;;;;10.27;6.63;;;;;;;3.39;44.48;95238.34;5111589;28;20035;-40
2022/03/18 09:19:30;;;;;;;9.07;5.75;;;;;;;3.17;42.74;95235.81;5111612;27;20027;-40
2022/03/18 09:21:55;;;;;;;6.25;5.03;;;;;;;3.32;43.83;95233.19;5111211;28;20473;-40
2022/03/18 09:24:21;;;;;;;14.55;7.80;;;;;;;3.52;43.79;95230.72;5111525;28;20058;-40
2022/03/18 09:26:46;;;;;;;11.77;7.25;;;;;;;3.75;40.75;95238.22;5111131;28;20489;-39
2022/03/18 09:29:12;;;;;;;9.25;6.47;;;;;;;4.07;42.50;95223.81;5111391;28;20047;-40
2022/03/18 09:31:37;;;;;;;8.02;6.05;;;;;;;3.96;40.96;95225.53;5111049;28;20454;-40
2022/03/18 09:34:03;;;;;;;9.10;5.35;;;;;;;3.52;42.75;95245.13;5111077;28;20024;-40
2022/03/18 09:36:31;;;;;;;9.20;5.70;;;;;;;3.48;42.58;95235.59;5111290;28;20027;-40
2022/03/18 09:38:57;;;;;;;9.10;5.97;;;;;;;3.47;40.09;95242.25;5110944;28;20111;-40
2022/03/18 09:41:22;;;;;;;10.10;5.03;;;;;;;2.40;40.25;95220.84;5110597;28;20029;-40
2022/03/18 09:43:48;;;;;;;9.57;5.40;;;;;;;2.29;40.98;95245.81;5111172;28;20106;-39
2022/03/18 09:46:15;;;;;;;7.25;5.25;;;;;;;2.22;41.27;95242.59;5110891;28;20027;-40
2022/03/18 09:49:12;;;;;;;9.10;5.35;;;;;;;2.73;42.31;95242.81;5110759;28;20032;-40
2022/03/18 09:51:42;;;;;;;8.20;5.32;;;;;;;4.08;41.13;95233.53;5111378;28;20035;-39
2022/03/18 09:54:09;;;;;;;6.63;4.65;;;;;;;6.27;35.57;95222.84;5111039;28;20051;-40
2022/03/18 09:56:35;;;;;;;5.80;4.65;;;;;;;7.23;35.00;95229.75;5093550;28;20028;-40
2022/03/18 09:59:01;;;;;;;7.18;4.90;;;;;;;7.77;31.41;95222.50;5089275;28;20145;-40
2022/03/18 10:01:27;;;;;;;7.53;5.20;;;;;;;6.36;32.19;95230.94;5090581;28;20024;-40
2022/03/18 10:03:52;;;;;;;6.38;5.05;;;;;;;6.66;35.58;95229.59;5090380;28;20024;-40
2022/03/18 10:06:27;;;;;;;7.55;4.88;;;;;;;6.35;34.87;95239.63;5090240;28;20031;-40
2022/03/18 10:08:53;;;;;;;6.63;4.80;;;;;;;6.97;33.91;95228.22;5107553;28;20024;-40
2022/03/18 10:11:30;;;;;;;6.40;5.47;;;;;;;7.57;31.32;95222.59;5097250;28;20567;-40
2022/03/18 10:14:01;;;;;;;6.25;4.82;;;;;;;7.07;31.42;95233.06;5089045;28;20024;-40
2022/03/18 10:16:45;;;;;;;9.13;6.20;;;;;;;8.02;33.54;95224.44;5091418;28;20028;-38
2022/03/18 10:19:18;;;;;;;11.73;8.07;;;;;;;7.95;32.82;95224.16;5094440;28;20024;-40
2022/03/18 10:22:03;;;;;;;5.70;4.22;;;;;;;7.82;31.05;95221.06;5094680;28;20028;-40
2022/03/18 10:24:36;;;;;;;12.23;6.47;;;;;;;7.60;34.44;95225.09;5094612;28;20045;-40
2022/03/18 10:27:12;;;;;;;8.00;5.47;;;;;;;7.96;34.63;95218.16;5094273;28;20037;-39
2022/03/18 10:29:46;;;;;;;5.90;4.55;;;;;;;7.35;30.51;95220.38;5094337;28;20020;-40
2022/03/18 10:32:13;;;;;;;8.23;5.70;;;;;;;7.63;31.85;95220.63;5094545;28;20043;-40
2022/03/18 10:37:25;;;;;;;5.88;4.32;;;;;;;8.94;29.86;95218.50;5094383;28;20500;-40
2022/03/18 10:39:58;;;;;;;6.07;4.68;;;;;;;8.76;29.70;95214.16;5094803;28;20035;-40
2022/03/18 10:42:24;;;;;;;8.20;5.18;;;;;;;8.89;32.35;95211.72;5114743;27;20397;-40
2022/03/18 10:45:00;;;;;;;7.47;5.72;;;;;;;8.93;30.26;95181.91;5114639;28;20039;-40
2022/03/18 10:47:42;;;;;;;9.20;5.10;;;;;;;9.15;29.55;95206.03;5114571;28;20642;-40
2022/03/18 10:50:11;;;;;;;8.82;6.60;;;;;;;9.06;29.37;95201.50;5114111;28;20480;-40
2022/03/18 10:52:46;;;;;;;5.93;4.57;;;;;;;9.20;28.57;95199.78;5114477;28;20118;-40
2022/03/18 10:55:17;;;;;;;4.88;4.35;;;;;;;8.96;28.45;95189.19;5108990;28;20488;-40
2022/03/18 10:57:54;;;;;;;6.20;4.97;;;;;;;9.02;30.56;95203.75;5093520;28;20575;-40
2022/03/18 11:00:31;;;;;;;5.40;3.97;;;;;;;8.96;31.89;95208.47;5093695;28;20024;-40
2022/03/18 11:02:58;;;;;;;6.20;4.32;;;;;;;9.10;28.89;95204.00;5093541;28;20024;-40
2022/03/18 11:05:25;;;;;;;6.45;5.22;;;;;;;8.73;27.36;95204.13;5113131;28;20046;-40
2022/03/18 11:07:51;;;;;;;6.15;4.05;;;;;;;8.79;31.68;95207.66;5114178;28;20035;-40
2022/03/18 11:13:04;;;;;;;6.88;4.30;;;;;;;9.36;28.70;95196.28;5093668;28;20043;-40
2022/03/18 11:15:30;;;;;;;6.03;4.32;;;;;;;9.02;29.77;95200.22;5093627;28;20028;-40
2022/03/18 11:17:57;;;;;;;4.88;4.10;;;;;;;9.08;27.30;95203.75;5093245;28;20032;-40
2022/03/18 11:20:26;;;;;;;6.10;4.53;;;;;;;8.55;28.04;95190.78;5093577;28;20028;-40
2022/03/18 11:22:51;;;;;;;21.67;4.47;;;;;;;8.74;27.98;95199.38;5093259;28;20425;-40
2022/03/18 11:25:17;;;;;;;6.07;4.38;;;;;;;8.70;32.20;95198.84;5093376;28;20032;-40
2022/03/18 11:27:44;;;;;;;4.72;4.05;;;;;;;8.36;27.68;95208.94;5091196;28;20062;-40
2022/03/18 11:30:21;;;;;;;5.55;4.60;;;;;;;7.98;32.75;95207.44;5092887;28;20024;-40
2022/03/18 11:33:17;;;;;;;5.13;3.97;;;;;;;7.55;28.44;95200.31;5093209;28;20032;-40
2022/03/18 11:36:01;;;;;;;8.27;4.75;;;;;;;6.73;30.50;95198.25;5092992;28;20028;-39
2022/03/18 11:38:47;;;;;;;6.63;4.30;;;;;;;6.72;30.15;95207.69;5092939;28;20038;-40
2022/03/18 11:41:12;;;;;;;6.88;4.75;;;;;;;7.34;32.39;95202.38;5105485;28;20027;-40
2022/03/18 11:43:41;;;;;;;6.32;4.50;;;;;;;7.54;32.54;95191.31;5111997;28;20099;-40
2022/03/18 11:46:12;;;;;;;10.38;6.22;;;;;;;7.54;29.33;95202.31;5113463;28;20031;-40
2022/03/18 11:48:46;;;;;;;8.38;5.68;;;;;;;7.32;32.54;95198.63;5112898;28;20043;-40
2022/03/18 11:51:30;;;;;;;8.68;5.38;;;;;;;7.44;28.93;95194.72;5113442;28;20027;-40
2022/03/18 11:53:57;;;;;;;7.68;5.15;;;;;;;7.21;29.59;95193.75;5112980;28;20546;-39